sensor_id;sensor_type;location;lat;lon;timestamp;pressure;altitude;pressure_sealevel;temperature;humidity
33795;BME280;51430;52.242;21.118;2022-07-10T00:01:03;100222.37;;;15.91;76.93
33795;BME280;51430;52.242;21.118;2022-07-10T00:03:31;100221.98;;;15.95;76.67
33795;BME280;51430;52.242;21.118;2022-07-10T00:05:59;100220.80;;;16.05;76.20
33795;BME280;51430;52.242;21.118;2022-07-10T00:08:27;100219.46;;;16.02;76.28
33795;BME280;51430;52.242;21.118;2022-07-10T00:10:55;100219.84;;;16.04;76.18
33795;BME280;51430;52.242;21.118;2022-07-10T00:13:23;100221.02;;;16.13;75.65
33795;BME280;51430;52.242;21.118;2022-07-10T00:15:51;100219.03;;;16.12;75.27
33795;BME280;51430;52.242;21.118;2022-07-10T00:18:19;100219.11;;;16.13;75.19
33795;BME280;51430;52.242;21.118;2022-07-10T00:20:47;100217.70;;;16.11;75.61
33795;BME280;51430;52.242;21.118;2022-07-10T00:23:15;100213.70;;;16.19;75.07
33795;BME280;51430;52.242;21.118;2022-07-10T00:25:43;100218.12;;;16.19;75.21
33795;BME280;51430;52.242;21.118;2022-07-10T00:28:11;100215.01;;;16.17;75.14
33795;BME280;51430;52.242;21.118;2022-07-10T00:30:39;100210.73;;;16.15;75.21
33795;BME280;51430;52.242;21.118;2022-07-10T00:33:07;100209.79;;;16.16;75.21
33795;BME280;51430;52.242;21.118;2022-07-10T00:35:36;100205.86;;;16.06;75.62
33795;BME280;51430;52.242;21.118;2022-07-10T00:38:04;100205.02;;;16.03;75.80
33795;BME280;51430;52.242;21.118;2022-07-10T00:40:32;100201.20;;;15.99;76.04
33795;BME280;51430;52.242;21.118;2022-07-10T00:43:00;100200.57;;;16.03;76.15
33795;BME280;51430;52.242;21.118;2022-07-10T00:45:28;100195.52;;;15.96;76.48
33795;BME280;51430;52.242;21.118;2022-07-10T00:47:56;100196.23;;;15.85;76.90
33795;BME280;51430;52.242;21.118;2022-07-10T00:50:24;100194.25;;;15.83;77.56
33795;BME280;51430;52.242;21.118;2022-07-10T00:52:52;100193.80;;;15.80;77.52
33795;BME280;51430;52.242;21.118;2022-07-10T00:55:20;100192.23;;;15.80;77.76
33795;BME280;51430;52.242;21.118;2022-07-10T00:57:49;100190.90;;;15.81;77.80
33795;BME280;51430;52.242;21.118;2022-07-10T01:00:17;100192.98;;;15.71;77.97
33795;BME280;51430;52.242;21.118;2022-07-10T01:02:46;100187.41;;;15.67;78.37
33795;BME280;51430;52.242;21.118;2022-07-10T01:05:15;100182.89;;;15.66;78.71
33795;BME280;51430;52.242;21.118;2022-07-10T01:07:43;100182.70;;;15.58;78.91
33795;BME280;51430;52.242;21.118;2022-07-10T01:10:11;100181.73;;;15.51;79.42
33795;BME280;51430;52.242;21.118;2022-07-10T01:12:39;100183.26;;;15.48;79.53
33795;BME280;51430;52.242;21.118;2022-07-10T01:15:08;100180.02;;;15.45;79.82
33795;BME280;51430;52.242;21.118;2022-07-10T01:17:36;100178.87;;;15.39;80.33
33795;BME280;51430;52.242;21.118;2022-07-10T01:20:06;100175.41;;;15.37;80.53
33795;BME280;51430;52.242;21.118;2022-07-10T01:22:38;100172.27;;;15.33;80.72
33795;BME280;51430;52.242;21.118;2022-07-10T01:25:06;100173.76;;;15.32;80.83
33795;BME280;51430;52.242;21.118;2022-07-10T01:27:35;100170.31;;;15.26;80.94
33795;BME280;51430;52.242;21.118;2022-07-10T01:30:03;100169.59;;;15.26;81.38
33795;BME280;51430;52.242;21.118;2022-07-10T01:32:41;100168.84;;;15.21;81.52
33795;BME280;51430;52.242;21.118;2022-07-10T01:35:09;100160.88;;;15.18;81.75
33795;BME280;51430;52.242;21.118;2022-07-10T01:37:39;100158.86;;;15.18;81.98
33795;BME280;51430;52.242;21.118;2022-07-10T01:40:08;100157.15;;;15.17;82.01
33795;BME280;51430;52.242;21.118;2022-07-10T01:42:38;100151.99;;;15.16;82.13
33795;BME280;51430;52.242;21.118;2022-07-10T01:45:08;100146.08;;;15.14;82.69
33795;BME280;51430;52.242;21.118;2022-07-10T01:47:37;100149.79;;;15.19;82.61
33795;BME280;51430;52.242;21.118;2022-07-10T01:50:05;100150.90;;;15.16;82.75
33795;BME280;51430;52.242;21.118;2022-07-10T01:52:34;100153.58;;;15.16;82.71
33795;BME280;51430;52.242;21.118;2022-07-10T01:55:03;100150.23;;;15.13;82.90
33795;BME280;51430;52.242;21.118;2022-07-10T01:57:32;100145.71;;;15.14;82.78
33795;BME280;51430;52.242;21.118;2022-07-10T02:00:00;100142.73;;;15.05;82.97
33795;BME280;51430;52.242;21.118;2022-07-10T02:02:28;100140.01;;;15.00;83.54
33795;BME280;51430;52.242;21.118;2022-07-10T02:04:56;100136.58;;;14.96;83.72
33795;BME280;51430;52.242;21.118;2022-07-10T02:07:25;100135.73;;;14.94;83.92
33795;BME280;51430;52.242;21.118;2022-07-10T02:09:54;100135.89;;;14.94;84.26
33795;BME280;51430;52.242;21.118;2022-07-10T02:12:22;100134.87;;;14.94;84.44
33795;BME280;51430;52.242;21.118;2022-07-10T02:14:49;100135.79;;;14.93;84.62
33795;BME280;51430;52.242;21.118;2022-07-10T02:17:17;100136.09;;;14.94;84.56
33795;BME280;51430;52.242;21.118;2022-07-10T02:19:45;100133.48;;;14.97;84.68
33795;BME280;51430;52.242;21.118;2022-07-10T02:22:13;100130.64;;;14.99;84.43
33795;BME280;51430;52.242;21.118;2022-07-10T02:24:41;100126.06;;;15.07;84.24
33795;BME280;51430;52.242;21.118;2022-07-10T02:27:09;100126.05;;;15.10;84.14
33795;BME280;51430;52.242;21.118;2022-07-10T02:29:37;100128.98;;;15.09;83.84
33795;BME280;51430;52.242;21.118;2022-07-10T02:32:06;100125.64;;;15.05;84.02
33795;BME280;51430;52.242;21.118;2022-07-10T02:34:36;100126.55;;;15.07;83.88
33795;BME280;51430;52.242;21.118;2022-07-10T02:37:04;100128.15;;;15.09;83.60
33795;BME280;51430;52.242;21.118;2022-07-10T02:39:32;100123.16;;;15.09;83.45
33795;BME280;51430;52.242;21.118;2022-07-10T02:42:00;100122.94;;;15.08;83.58
33795;BME280;51430;52.242;21.118;2022-07-10T02:44:28;100117.14;;;15.04;83.78
33795;BME280;51430;52.242;21.118;2022-07-10T02:46:57;100123.08;;;15.06;84.02
33795;BME280;51430;52.242;21.118;2022-07-10T02:49:25;100122.20;;;15.06;83.61
33795;BME280;51430;52.242;21.118;2022-07-10T02:51:53;100120.58;;;15.02;83.80
33795;BME280;51430;52.242;21.118;2022-07-10T02:54:21;100119.05;;;15.01;83.75
33795;BME280;51430;52.242;21.118;2022-07-10T02:56:49;100121.41;;;15.04;83.73
33795;BME280;51430;52.242;21.118;2022-07-10T02:59:17;100122.34;;;15.07;83.78
33795;BME280;51430;52.242;21.118;2022-07-10T03:01:46;100124.08;;;15.16;82.92
33795;BME280;51430;52.242;21.118;2022-07-10T03:04:14;100126.72;;;15.10;82.93
33795;BME280;51430;52.242;21.118;2022-07-10T03:06:42;100122.60;;;15.10;82.81
33795;BME280;51430;52.242;21.118;2022-07-10T03:09:10;100124.25;;;15.07;83.24
33795;BME280;51430;52.242;21.118;2022-07-10T03:11:38;100121.88;;;15.10;83.25
33795;BME280;51430;52.242;21.118;2022-07-10T03:14:06;100116.27;;;15.13;82.98
33795;BME280;51430;52.242;21.118;2022-07-10T03:16:34;100115.54;;;15.19;82.77
33795;BME280;51430;52.242;21.118;2022-07-10T03:19:02;100112.90;;;15.22;82.58
33795;BME280;51430;52.242;21.118;2022-07-10T03:21:30;100110.29;;;15.24;82.96
33795;BME280;51430;52.242;21.118;2022-07-10T03:23:58;100113.30;;;15.25;82.95
33795;BME280;51430;52.242;21.118;2022-07-10T03:26:26;100114.79;;;15.26;82.97
33795;BME280;51430;52.242;21.118;2022-07-10T03:28:56;100116.46;;;15.25;82.92
33795;BME280;51430;52.242;21.118;2022-07-10T03:31:24;100118.37;;;15.26;82.60
33795;BME280;51430;52.242;21.118;2022-07-10T03:33:53;100118.23;;;15.22;82.71
33795;BME280;51430;52.242;21.118;2022-07-10T03:36:20;100115.51;;;15.21;83.13
33795;BME280;51430;52.242;21.118;2022-07-10T03:38:48;100116.05;;;15.21;82.85
33795;BME280;51430;52.242;21.118;2022-07-10T03:41:16;100115.33;;;15.21;82.70
33795;BME280;51430;52.242;21.118;2022-07-10T03:43:44;100114.42;;;15.19;82.79
33795;BME280;51430;52.242;21.118;2022-07-10T03:46:12;100121.39;;;15.15;82.49
33795;BME280;51430;52.242;21.118;2022-07-10T03:48:40;100123.02;;;15.07;82.09
33795;BME280;51430;52.242;21.118;2022-07-10T03:51:08;100120.54;;;15.05;82.70
33795;BME280;51430;52.242;21.118;2022-07-10T03:53:36;100118.31;;;15.07;83.23
33795;BME280;51430;52.242;21.118;2022-07-10T03:56:05;100118.92;;;15.15;83.16
33795;BME280;51430;52.242;21.118;2022-07-10T03:58:33;100116.18;;;15.21;82.53
33795;BME280;51430;52.242;21.118;2022-07-10T04:01:01;100109.56;;;15.28;80.76
33795;BME280;51430;52.242;21.118;2022-07-10T04:03:30;100108.99;;;15.28;80.32
33795;BME280;51430;52.242;21.118;2022-07-10T04:05:58;100112.66;;;15.37;80.31
33795;BME280;51430;52.242;21.118;2022-07-10T04:08:26;100117.48;;;15.52;78.49
33795;BME280;51430;52.242;21.118;2022-07-10T04:10:53;100121.31;;;15.54;78.14
33795;BME280;51430;52.242;21.118;2022-07-10T04:13:21;100121.31;;;15.58;78.58
33795;BME280;51430;52.242;21.118;2022-07-10T04:15:49;100123.66;;;15.69;78.94
33795;BME280;51430;52.242;21.118;2022-07-10T04:18:17;100127.98;;;15.82;79.00
33795;BME280;51430;52.242;21.118;2022-07-10T04:20:45;100122.86;;;15.94;77.10
33795;BME280;51430;52.242;21.118;2022-07-10T04:23:13;100124.29;;;16.08;78.07
33795;BME280;51430;52.242;21.118;2022-07-10T04:25:41;100127.94;;;16.22;76.87
33795;BME280;51430;52.242;21.118;2022-07-10T04:28:09;100125.92;;;16.36;75.62
33795;BME280;51430;52.242;21.118;2022-07-10T04:30:37;100120.56;;;16.42;75.44
33795;BME280;51430;52.242;21.118;2022-07-10T04:33:05;100120.25;;;16.51;75.85
33795;BME280;51430;52.242;21.118;2022-07-10T04:35:33;100122.85;;;16.63;75.30
33795;BME280;51430;52.242;21.118;2022-07-10T04:38:01;100123.44;;;16.71;73.76
33795;BME280;51430;52.242;21.118;2022-07-10T04:40:29;100123.65;;;16.78;73.27
33795;BME280;51430;52.242;21.118;2022-07-10T04:42:57;100122.89;;;16.85;72.23
33795;BME280;51430;52.242;21.118;2022-07-10T04:45:25;100122.44;;;16.92;71.51
33795;BME280;51430;52.242;21.118;2022-07-10T04:47:53;100121.73;;;16.99;70.64
33795;BME280;51430;52.242;21.118;2022-07-10T04:50:21;100117.71;;;17.05;70.87
33795;BME280;51430;52.242;21.118;2022-07-10T04:52:49;100119.25;;;17.17;70.75
33795;BME280;51430;52.242;21.118;2022-07-10T04:55:18;100115.23;;;17.34;70.43
33795;BME280;51430;52.242;21.118;2022-07-10T04:57:46;100116.91;;;17.43;69.45
33795;BME280;51430;52.242;21.118;2022-07-10T05:00:15;100118.55;;;17.48;69.40
33795;BME280;51430;52.242;21.118;2022-07-10T05:02:43;100116.80;;;17.51;70.39
33795;BME280;51430;52.242;21.118;2022-07-10T05:05:11;100116.51;;;17.60;70.85
33795;BME280;51430;52.242;21.118;2022-07-10T05:07:39;100117.38;;;17.68;69.37
33795;BME280;51430;52.242;21.118;2022-07-10T05:10:07;100112.98;;;17.71;68.84
33795;BME280;51430;52.242;21.118;2022-07-10T05:12:35;100109.80;;;17.84;69.55
33795;BME280;51430;52.242;21.118;2022-07-10T05:15:03;100109.93;;;18.03;69.54
33795;BME280;51430;52.242;21.118;2022-07-10T05:17:31;100111.40;;;18.22;68.33
33795;BME280;51430;52.242;21.118;2022-07-10T05:20:00;100108.70;;;18.32;67.71
33795;BME280;51430;52.242;21.118;2022-07-10T05:22:28;100102.50;;;18.39;66.57
33795;BME280;51430;52.242;21.118;2022-07-10T05:24:58;100106.52;;;18.40;64.65
33795;BME280;51430;52.242;21.118;2022-07-10T05:27:26;100104.27;;;18.44;64.68
33795;BME280;51430;52.242;21.118;2022-07-10T05:29:54;100100.92;;;18.63;64.71
33795;BME280;51430;52.242;21.118;2022-07-10T05:32:22;100100.91;;;18.93;64.71
33795;BME280;51430;52.242;21.118;2022-07-10T05:34:52;100104.79;;;19.20;62.83
33795;BME280;51430;52.242;21.118;2022-07-10T05:37:20;100103.62;;;19.24;62.28
33795;BME280;51430;52.242;21.118;2022-07-10T05:39:48;100101.61;;;19.25;61.73
33795;BME280;51430;52.242;21.118;2022-07-10T05:42:17;100097.58;;;19.08;61.18
33795;BME280;51430;52.242;21.118;2022-07-10T05:44:45;100097.02;;;18.99;60.78
33795;BME280;51430;52.242;21.118;2022-07-10T05:47:12;100096.80;;;18.89;61.12
33795;BME280;51430;52.242;21.118;2022-07-10T05:49:41;100095.45;;;18.87;61.49
33795;BME280;51430;52.242;21.118;2022-07-10T05:52:09;100093.50;;;19.04;61.90
33795;BME280;51430;52.242;21.118;2022-07-10T05:54:37;100094.80;;;19.23;61.64
33795;BME280;51430;52.242;21.118;2022-07-10T05:57:05;100094.08;;;19.37;60.55
33795;BME280;51430;52.242;21.118;2022-07-10T05:59:34;100091.39;;;19.49;61.47
33795;BME280;51430;52.242;21.118;2022-07-10T06:02:02;100096.79;;;19.66;61.64
33795;BME280;51430;52.242;21.118;2022-07-10T06:04:30;100096.17;;;19.85;61.33
33795;BME280;51430;52.242;21.118;2022-07-10T06:06:59;100096.42;;;19.99;60.51
33795;BME280;51430;52.242;21.118;2022-07-10T06:09:27;100093.59;;;20.14;59.86
33795;BME280;51430;52.242;21.118;2022-07-10T06:11:56;100094.02;;;20.23;57.17
33795;BME280;51430;52.242;21.118;2022-07-10T06:14:24;100093.55;;;20.21;56.15
33795;BME280;51430;52.242;21.118;2022-07-10T06:16:52;100095.14;;;20.37;55.97
33795;BME280;51430;52.242;21.118;2022-07-10T06:19:20;100096.56;;;20.53;56.14
33795;BME280;51430;52.242;21.118;2022-07-10T06:21:48;100094.77;;;20.67;56.01
33795;BME280;51430;52.242;21.118;2022-07-10T06:24:15;100099.04;;;20.94;55.22
33795;BME280;51430;52.242;21.118;2022-07-10T06:26:43;100096.85;;;21.02;54.52
33795;BME280;51430;52.242;21.118;2022-07-10T06:29:11;100100.07;;;21.18;54.52
33795;BME280;51430;52.242;21.118;2022-07-10T06:31:39;100104.44;;;21.34;53.14
33795;BME280;51430;52.242;21.118;2022-07-10T06:34:07;100101.52;;;20.92;52.18
33795;BME280;51430;52.242;21.118;2022-07-10T06:36:35;100094.05;;;20.33;53.44
33795;BME280;51430;52.242;21.118;2022-07-10T06:39:03;100091.25;;;20.17;54.44
33795;BME280;51430;52.242;21.118;2022-07-10T06:41:31;100087.96;;;20.01;54.64
33795;BME280;51430;52.242;21.118;2022-07-10T06:43:59;100090.62;;;19.96;55.47
33795;BME280;51430;52.242;21.118;2022-07-10T06:46:28;100091.58;;;19.83;55.52
33795;BME280;51430;52.242;21.118;2022-07-10T06:48:57;100092.45;;;19.51;56.61
33795;BME280;51430;52.242;21.118;2022-07-10T06:51:25;100090.77;;;19.49;57.14
33795;BME280;51430;52.242;21.118;2022-07-10T06:53:55;100088.33;;;19.53;58.03
33795;BME280;51430;52.242;21.118;2022-07-10T06:56:23;100090.27;;;19.39;57.86
33795;BME280;51430;52.242;21.118;2022-07-10T06:58:51;100089.92;;;19.27;58.56
33795;BME280;51430;52.242;21.118;2022-07-10T07:01:21;100091.40;;;19.31;59.00
33795;BME280;51430;52.242;21.118;2022-07-10T07:03:50;100092.40;;;19.27;59.31
33795;BME280;51430;52.242;21.118;2022-07-10T07:06:20;100098.12;;;19.46;58.85
33795;BME280;51430;52.242;21.118;2022-07-10T07:08:48;100094.80;;;19.67;58.27
33795;BME280;51430;52.242;21.118;2022-07-10T07:11:16;100098.74;;;19.77;58.16
33795;BME280;51430;52.242;21.118;2022-07-10T07:13:44;100095.68;;;19.80;57.73
33795;BME280;51430;52.242;21.118;2022-07-10T07:16:12;100094.54;;;19.69;57.77
33795;BME280;51430;52.242;21.118;2022-07-10T07:18:46;100099.92;;;19.59;57.85
33795;BME280;51430;52.242;21.118;2022-07-10T07:21:20;100096.98;;;19.69;57.69
33795;BME280;51430;52.242;21.118;2022-07-10T07:24:06;100093.09;;;20.21;56.65
33795;BME280;51430;52.242;21.118;2022-07-10T07:26:35;100097.36;;;20.85;54.78
33795;BME280;51430;52.242;21.118;2022-07-10T07:29:03;100088.33;;;21.76;53.27
33795;BME280;51430;52.242;21.118;2022-07-10T07:31:31;100088.12;;;22.11;51.93
33795;BME280;51430;52.242;21.118;2022-07-10T07:33:59;100087.60;;;22.41;50.43
33795;BME280;51430;52.242;21.118;2022-07-10T07:36:27;100094.30;;;21.95;51.15
33795;BME280;51430;52.242;21.118;2022-07-10T07:38:55;100096.08;;;22.39;50.84
33795;BME280;51430;52.242;21.118;2022-07-10T07:41:23;100095.58;;;22.57;50.96
33795;BME280;51430;52.242;21.118;2022-07-10T07:43:51;100093.25;;;22.97;50.50
33795;BME280;51430;52.242;21.118;2022-07-10T07:46:20;100090.12;;;24.10;49.31
33795;BME280;51430;52.242;21.118;2022-07-10T07:48:49;100089.65;;;24.55;46.09
33795;BME280;51430;52.242;21.118;2022-07-10T07:51:17;100087.29;;;24.21;47.01
33795;BME280;51430;52.242;21.118;2022-07-10T07:53:45;100089.64;;;24.85;45.03
33795;BME280;51430;52.242;21.118;2022-07-10T07:56:13;100088.95;;;25.36;44.32
33795;BME280;51430;52.242;21.118;2022-07-10T07:58:41;100087.30;;;25.77;43.55
33795;BME280;51430;52.242;21.118;2022-07-10T08:01:09;100093.19;;;25.97;42.59
33795;BME280;51430;52.242;21.118;2022-07-10T08:03:37;100095.92;;;25.32;43.83
33795;BME280;51430;52.242;21.118;2022-07-10T08:06:25;100090.61;;;24.73;44.60
33795;BME280;51430;52.242;21.118;2022-07-10T08:08:54;100093.81;;;24.37;44.92
33795;BME280;51430;52.242;21.118;2022-07-10T08:11:21;100085.36;;;24.03;45.56
33795;BME280;51430;52.242;21.118;2022-07-10T08:13:50;100090.14;;;23.86;45.45
33795;BME280;51430;52.242;21.118;2022-07-10T08:16:18;100093.78;;;23.63;45.36
33795;BME280;51430;52.242;21.118;2022-07-10T08:18:48;100092.83;;;23.50;46.28
33795;BME280;51430;52.242;21.118;2022-07-10T08:21:18;100092.23;;;23.58;46.19
33795;BME280;51430;52.242;21.118;2022-07-10T08:23:47;100098.13;;;23.71;47.25
33795;BME280;51430;52.242;21.118;2022-07-10T08:26:15;100100.13;;;23.78;46.89
33795;BME280;51430;52.242;21.118;2022-07-10T08:28:43;100098.58;;;23.72;45.14
33795;BME280;51430;52.242;21.118;2022-07-10T08:31:11;100099.02;;;23.38;46.02
33795;BME280;51430;52.242;21.118;2022-07-10T08:33:42;100091.45;;;23.25;47.40
33795;BME280;51430;52.242;21.118;2022-07-10T08:36:10;100093.55;;;23.28;48.21
33795;BME280;51430;52.242;21.118;2022-07-10T08:38:59;100094.20;;;23.14;47.07
33795;BME280;51430;52.242;21.118;2022-07-10T08:41:26;100097.22;;;22.53;45.62
33795;BME280;51430;52.242;21.118;2022-07-10T08:43:55;100095.81;;;22.08;47.52
33795;BME280;51430;52.242;21.118;2022-07-10T08:46:23;100099.70;;;21.82;48.21
33795;BME280;51430;52.242;21.118;2022-07-10T08:48:53;100095.83;;;21.40;49.93
33795;BME280;51430;52.242;21.118;2022-07-10T08:51:24;100095.56;;;21.47;50.63
33795;BME280;51430;52.242;21.118;2022-07-10T08:53:59;100096.65;;;21.24;52.41
33795;BME280;51430;52.242;21.118;2022-07-10T08:56:28;100087.30;;;20.72;54.68
33795;BME280;51430;52.242;21.118;2022-07-10T08:58:56;100087.46;;;20.62;58.07
33795;BME280;51430;52.242;21.118;2022-07-10T09:01:24;100093.09;;;21.16;56.64
33795;BME280;51430;52.242;21.118;2022-07-10T09:03:52;100092.76;;;21.99;54.51
33795;BME280;51430;52.242;21.118;2022-07-10T09:06:20;100089.96;;;22.09;54.10
33795;BME280;51430;52.242;21.118;2022-07-10T09:09:04;100092.65;;;22.08;52.07
33795;BME280;51430;52.242;21.118;2022-07-10T09:11:33;100094.80;;;22.39;52.85
33795;BME280;51430;52.242;21.118;2022-07-10T09:14:03;100093.79;;;22.75;50.83
33795;BME280;51430;52.242;21.118;2022-07-10T09:16:33;100092.33;;;22.64;50.45
33795;BME280;51430;52.242;21.118;2022-07-10T09:19:15;100085.05;;;22.73;51.20
33795;BME280;51430;52.242;21.118;2022-07-10T09:21:44;100081.10;;;22.72;49.21
33795;BME280;51430;52.242;21.118;2022-07-10T09:24:12;100080.86;;;23.71;48.22
33795;BME280;51430;52.242;21.118;2022-07-10T09:26:41;100084.33;;;25.38;42.92
33795;BME280;51430;52.242;21.118;2022-07-10T09:29:11;100082.15;;;26.25;40.52
33795;BME280;51430;52.242;21.118;2022-07-10T09:34:34;100077.31;;;27.79;37.72
33795;BME280;51430;52.242;21.118;2022-07-10T09:39:53;100080.52;;;29.29;36.81
33795;BME280;51430;52.242;21.118;2022-07-10T09:42:30;100077.39;;;29.00;37.00
33795;BME280;51430;52.242;21.118;2022-07-10T09:45:17;100075.83;;;27.32;37.72
33795;BME280;51430;52.242;21.118;2022-07-10T09:47:56;100073.48;;;25.87;39.41
33795;BME280;51430;52.242;21.118;2022-07-10T09:50:35;100069.85;;;24.97;39.33
33795;BME280;51430;52.242;21.118;2022-07-10T09:53:06;100066.85;;;23.81;41.31
33795;BME280;51430;52.242;21.118;2022-07-10T09:55:36;100065.14;;;23.73;43.31
33795;BME280;51430;52.242;21.118;2022-07-10T09:58:09;100068.96;;;25.06;40.17
33795;BME280;51430;52.242;21.118;2022-07-10T10:01:00;100067.65;;;26.09;38.84
33795;BME280;51430;52.242;21.118;2022-07-10T10:03:32;100066.71;;;26.18;39.71
33795;BME280;51430;52.242;21.118;2022-07-10T10:06:03;100065.45;;;25.90;38.97
33795;BME280;51430;52.242;21.118;2022-07-10T10:08:57;100069.67;;;25.33;41.13
33795;BME280;51430;52.242;21.118;2022-07-10T10:11:29;100069.02;;;24.21;40.94
33795;BME280;51430;52.242;21.118;2022-07-10T10:14:00;100067.69;;;23.55;42.45
33795;BME280;51430;52.242;21.118;2022-07-10T10:16:29;100071.56;;;23.53;42.25
33795;BME280;51430;52.242;21.118;2022-07-10T10:19:06;100071.59;;;23.35;42.87
33795;BME280;51430;52.242;21.118;2022-07-10T10:21:56;100070.49;;;23.49;43.49
33795;BME280;51430;52.242;21.118;2022-07-10T10:24:25;100074.02;;;24.85;41.93
33795;BME280;51430;52.242;21.118;2022-07-10T10:26:53;100072.94;;;27.25;37.81
33795;BME280;51430;52.242;21.118;2022-07-10T10:29:22;100084.41;;;29.04;35.36
33795;BME280;51430;52.242;21.118;2022-07-10T10:31:50;100079.65;;;28.89;34.44
33795;BME280;51430;52.242;21.118;2022-07-10T10:34:45;100078.00;;;27.92;35.20
33795;BME280;51430;52.242;21.118;2022-07-10T10:37:34;100072.45;;;27.22;35.83
33795;BME280;51430;52.242;21.118;2022-07-10T10:40:07;100064.77;;;27.01;35.87
33795;BME280;51430;52.242;21.118;2022-07-10T10:42:42;100065.83;;;27.48;35.45
33795;BME280;51430;52.242;21.118;2022-07-10T10:48:06;100068.86;;;29.87;32.07
33795;BME280;51430;52.242;21.118;2022-07-10T10:50:56;100065.92;;;30.37;30.19
33795;BME280;51430;52.242;21.118;2022-07-10T10:53:28;100072.57;;;30.50;30.44
33795;BME280;51430;52.242;21.118;2022-07-10T10:58:45;100075.15;;;29.88;30.00
33795;BME280;51430;52.242;21.118;2022-07-10T11:01:26;100070.83;;;30.91;29.44
33795;BME280;51430;52.242;21.118;2022-07-10T11:06:44;100066.73;;;31.15;28.27
33795;BME280;51430;52.242;21.118;2022-07-10T11:09:28;100066.34;;;31.82;28.34
33795;BME280;51430;52.242;21.118;2022-07-10T11:12:10;100075.62;;;31.80;28.31
33795;BME280;51430;52.242;21.118;2022-07-10T11:14:45;100070.67;;;31.02;29.65
33795;BME280;51430;52.242;21.118;2022-07-10T11:17:15;100073.27;;;29.54;31.51
33795;BME280;51430;52.242;21.118;2022-07-10T11:19:43;100071.89;;;30.73;31.50
33795;BME280;51430;52.242;21.118;2022-07-10T11:22:47;100073.33;;;31.94;29.99
33795;BME280;51430;52.242;21.118;2022-07-10T11:25:39;100085.27;;;33.45;28.65
33795;BME280;51430;52.242;21.118;2022-07-10T11:28:11;100079.95;;;34.09;28.00
33795;BME280;51430;52.242;21.118;2022-07-10T11:30:52;100076.67;;;33.72;28.51
33795;BME280;51430;52.242;21.118;2022-07-10T11:33:21;100084.98;;;34.07;28.06
33795;BME280;51430;52.242;21.118;2022-07-10T11:35:51;100081.30;;;35.24;27.37
33795;BME280;51430;52.242;21.118;2022-07-10T11:38:21;100085.27;;;36.00;25.99
33795;BME280;51430;52.242;21.118;2022-07-10T11:40:50;100089.01;;;35.41;23.98
33795;BME280;51430;52.242;21.118;2022-07-10T11:43:21;100081.64;;;34.39;25.67
33795;BME280;51430;52.242;21.118;2022-07-10T11:45:52;100077.98;;;33.63;25.54
33795;BME280;51430;52.242;21.118;2022-07-10T11:48:27;100079.25;;;33.20;26.18
33795;BME280;51430;52.242;21.118;2022-07-10T11:50:55;100076.94;;;32.99;25.76
33795;BME280;51430;52.242;21.118;2022-07-10T11:53:27;100081.17;;;33.70;26.42
33795;BME280;51430;52.242;21.118;2022-07-10T11:55:56;100079.27;;;34.79;24.73
33795;BME280;51430;52.242;21.118;2022-07-10T11:58:24;100078.76;;;33.97;25.22
33795;BME280;51430;52.242;21.118;2022-07-10T12:01:02;100074.17;;;33.41;25.86
33795;BME280;51430;52.242;21.118;2022-07-10T12:03:34;100067.85;;;33.93;26.09
33795;BME280;51430;52.242;21.118;2022-07-10T12:06:20;100064.52;;;34.89;25.10
33795;BME280;51430;52.242;21.118;2022-07-10T12:08:48;100066.23;;;36.09;24.33
33795;BME280;51430;52.242;21.118;2022-07-10T12:11:17;100061.80;;;36.97;24.69
33795;BME280;51430;52.242;21.118;2022-07-10T12:13:49;100065.02;;;37.50;23.75
33795;BME280;51430;52.242;21.118;2022-07-10T12:16:17;100071.18;;;38.18;23.16
33795;BME280;51430;52.242;21.118;2022-07-10T12:18:46;100067.88;;;34.96;25.12
33795;BME280;51430;52.242;21.118;2022-07-10T12:21:15;100055.85;;;31.86;28.66
33795;BME280;51430;52.242;21.118;2022-07-10T12:23:44;100055.59;;;30.68;30.34
33795;BME280;51430;52.242;21.118;2022-07-10T12:26:14;100055.10;;;29.45;31.90
33795;BME280;51430;52.242;21.118;2022-07-10T12:28:49;100057.43;;;29.62;31.78
33795;BME280;51430;52.242;21.118;2022-07-10T12:31:22;100061.23;;;29.77;31.38
33795;BME280;51430;52.242;21.118;2022-07-10T12:33:52;100057.23;;;30.64;30.56
33795;BME280;51430;52.242;21.118;2022-07-10T12:36:21;100060.65;;;31.31;28.92
33795;BME280;51430;52.242;21.118;2022-07-10T12:38:56;100059.91;;;30.22;29.73
33795;BME280;51430;52.242;21.118;2022-07-10T12:41:26;100066.23;;;28.99;31.88
33795;BME280;51430;52.242;21.118;2022-07-10T12:43:54;100072.32;;;28.24;34.03
33795;BME280;51430;52.242;21.118;2022-07-10T12:46:23;100066.08;;;27.62;36.04
33795;BME280;51430;52.242;21.118;2022-07-10T12:49:04;100066.84;;;28.43;35.15
33795;BME280;51430;52.242;21.118;2022-07-10T12:51:45;100075.11;;;29.39;33.14
33795;BME280;51430;52.242;21.118;2022-07-10T12:57:00;100076.94;;;28.69;33.11
33795;BME280;51430;52.242;21.118;2022-07-10T12:59:28;100078.83;;;29.18;32.52
33795;BME280;51430;52.242;21.118;2022-07-10T13:01:56;100078.16;;;27.97;34.37
33795;BME280;51430;52.242;21.118;2022-07-10T13:04:26;100073.39;;;27.34;36.56
33795;BME280;51430;52.242;21.118;2022-07-10T13:06:54;100072.50;;;26.64;39.48
33795;BME280;51430;52.242;21.118;2022-07-10T13:09:24;100069.77;;;25.78;42.52
33795;BME280;51430;52.242;21.118;2022-07-10T13:11:53;100071.20;;;25.03;47.50